FZJD weather

Doruma Airport
Doruma, Orientale Province, Congo (Kinshasa)

Public forecast

Using degrees Celsius for public forecast. Weather courtesy of forecast.io.

Closest aviation weather report (METAR) to Doruma Airport

Report is more than 6 hours old.

Closest report is Arua Airport, 218.5 nm (404.6 km) ESE. Retrieved 2013/09/02 12:00 UTC (6 years ago):

HUAR 021200Z 27004KT 9999 BKN020 FEW023CB SCT300 27/18

Closest aviation forecast (TAF) to Doruma Airport

Forecast is more than 12 hours old.

Closest forecast is Yambio Airport, 45.4 nm (84.2 km) ESE. Retrieved 2015/03/08 06:00 UTC (5 years ago):

TAF HSYA 080400Z 0806/0912 18005G15KT 9999 SCT040 BKN140 TEMPO 0812/0818 21008G18KT 6000 TSRA FEW045CB TEMPO 0818/0824 VRB03KT 9999 SCT040 BKN140